ニアメ の空港の天気 - METARとTAF

ニアメ/ディオリ・アマニ国際空港 ( DRRN / NIM ) - ニジェール ニアメ
飛行場実況気象(Metar)
観測時間11/30 18:00 WAT (11/30 17:00 UTC)
風向・風速東 4m/s
視程9000m
天気現象
なし
気温33℃
湿度10%
気圧1008hPa
METARDRRN 301700Z 08008KT 9000 NSC 33/M03 Q1008 NOSIG
過去の天気等 Google飛行場航空写真 Wunderground天気予報

過去48時間のMETAR

飛行場予報(TAF)
発表時間: 11/30 18:00 WAT (11/30 17:00 UTC)
予報対象時間: 30日19時 WAT ~ 2日1時 WAT
風向・風速北東 3m/s
視程8000m
なし
1日7時 WAT ~ 1日9時 WAT に一時的に
視程3500m
天気現象風塵
TAF DRRN 301700Z 3018/0124 04006KT 8000 NSC
TEMPO 0106/0108 3500 DU